Time;durP1;ratioP1;P1;durP2;ratioP2;P2;SDS_P1;SDS_P2;PMS_P1;PMS_P2;Temp;Humidity;BMP_temperature;BMP_pressure;BME280_temperature;BME280_humidity;BME280_pressure;Samples;Min_cycle;Max_cycle;Signal;HPM_P1;HPM_P2
2023/08/17 00:02:48;;;;;;;;;;;;;;;;;;6238470;28;19944;-55
2023/08/17 00:05:49;;;;;;;;;;;;;;;;;;6238273;28;19921;-52
2023/08/17 00:08:49;;;;;;;;;;;;;;;;;;6241096;28;20717;-53
2023/08/17 00:11:50;;;;;;;;;;;;;;;;;;6239372;28;19924;-50
2023/08/17 00:14:51;;;;;;;;;;;;;;;;;;6249966;28;19924;-56
2023/08/17 00:17:51;;;;;;;;;;;;;;;;;;6265359;28;19925;-58
2023/08/17 00:20:52;;;;;;;;;;;;;;;;;;6262970;28;19924;-58
2023/08/17 00:23:52;;;;;;;;;;;;;;;;;;6262100;28;19944;-55
2023/08/17 00:26:53;;;;;;;;;;;;;;;;;;6262831;28;19966;-58
2023/08/17 00:29:53;;;;;;;;;;;;;;;;;;6262695;28;20433;-58
2023/08/17 00:32:54;;;;;;;;;;;;;;;;;;6244604;28;20438;-58
2023/08/17 00:35:54;;;;;;;;;;;;;;;;;;6263546;28;19928;-60
2023/08/17 00:38:55;;;;;;;;;;;;;;;;;;6262998;28;19921;-58
2023/08/17 00:41:55;;;;;;;;;;;;;;;;;;6264239;28;20031;-59
2023/08/17 00:44:56;;;;;;;;;;;;;;;;;;6263406;28;20375;-53
2023/08/17 00:47:57;;;;;;;;;;;;;;;;;;6263909;28;19925;-59
2023/08/17 00:50:58;;;;;;;;;;;;;;;;;;6270573;28;19970;-53
2023/08/17 00:53:59;;;;;;;;;;;;;;;;;;6269305;28;19932;-55
2023/08/17 00:57:00;;;;;;;;;;;;;;;;;;6264832;28;19921;-56
2023/08/17 01:00:01;;;;;;;;;;;;;;;;;;6263762;28;19921;-56
2023/08/17 01:03:01;;;;;;;;;;;;;;;;;;6266773;28;20437;-57
2023/08/17 01:06:02;;;;;;;;;;;;;;;;;;6263494;28;19927;-55
2023/08/17 01:09:03;;;;;;;;;;;;;;;;;;6268791;28;20303;-61
2023/08/17 01:12:08;;;;;;;;;;;;;;;;;;6265907;28;20346;-61
2023/08/17 01:15:15;;;;;;;;;;;;;;;;;;6253200;28;19921;-61
2023/08/17 01:18:20;;;;;;;;;;;;;;;;;;6238565;28;19964;-61
2023/08/17 01:21:23;;;;;;;;;;;;;;;;;;6243683;28;19925;-61
2023/08/17 01:24:23;;;;;;;;;;;;;;;;;;6242051;28;19980;-60
2023/08/17 01:27:24;;;;;;;;;;;;;;;;;;6242890;28;19920;-57
2023/08/17 01:30:24;;;;;;;;;;;;;;;;;;6241105;28;21020;-59
2023/08/17 01:33:40;;;;;;;;;;;;;;;;;;6243322;28;19960;-60
2023/08/17 01:36:43;;;;;;;;;;;;;;;;;;6238844;28;19971;-60
2023/08/17 01:39:45;;;;;;;;;;;;;;;;;;6243231;28;19924;-59
2023/08/17 01:42:46;;;;;;;;;;;;;;;;;;6241375;28;20393;-59
2023/08/17 01:45:47;;;;;;;;;;;;;;;;;;6242577;28;19921;-60
2023/08/17 01:48:47;;;;;;;;;;;;;;;;;;6239273;28;19925;-60
2023/08/17 01:51:48;;;;;;;;;;;;;;;;;;6243127;28;19928;-60
2023/08/17 01:54:48;;;;;;;;;;;;;;;;;;6241289;28;19929;-61
2023/08/17 01:57:49;;;;;;;;;;;;;;;;;;6240490;28;19925;-59
2023/08/17 02:00:49;;;;;;;;;;;;;;;;;;6240188;28;19928;-59
2023/08/17 02:03:50;;;;;;;;;;;;;;;;;;6241666;28;19929;-58
2023/08/17 02:06:50;;;;;;;;;;;;;;;;;;6239111;28;20391;-59
2023/08/17 02:09:51;;;;;;;;;;;;;;;;;;6241041;28;19924;-60
2023/08/17 02:12:51;;;;;;;;;;;;;;;;;;6240822;28;19921;-60
2023/08/17 02:15:52;;;;;;;;;;;;;;;;;;6242090;28;19921;-60
2023/08/17 02:18:53;;;;;;;;;;;;;;;;;;6238160;28;19921;-59
2023/08/17 02:21:53;;;;;;;;;;;;;;;;;;6241338;28;19921;-60
2023/08/17 02:24:54;;;;;;;;;;;;;;;;;;6240174;28;19921;-61
2023/08/17 02:27:54;;;;;;;;;;;;;;;;;;6241361;28;19924;-60
2023/08/17 02:30:55;;;;;;;;;;;;;;;;;;6240150;28;19932;-59
2023/08/17 02:34:00;;;;;;;;;;;;;;;;;;6239890;28;20294;-58
2023/08/17 02:37:00;;;;;;;;;;;;;;;;;;6237622;28;20289;-59
2023/08/17 02:40:01;;;;;;;;;;;;;;;;;;6241605;28;19987;-58
2023/08/17 02:43:02;;;;;;;;;;;;;;;;;;6241361;28;20019;-59
2023/08/17 02:46:03;;;;;;;;;;;;;;;;;;6237767;28;19920;-56
2023/08/17 02:49:03;;;;;;;;;;;;;;;;;;6241289;28;19920;-57
2023/08/17 02:52:04;;;;;;;;;;;;;;;;;;6238510;28;19921;-61
2023/08/17 02:55:05;;;;;;;;;;;;;;;;;;6241799;28;19928;-60
2023/08/17 02:58:05;;;;;;;;;;;;;;;;;;6238516;28;19925;-59
2023/08/17 03:01:09;;;;;;;;;;;;;;;;;;6240557;28;20295;-57
2023/08/17 03:04:10;;;;;;;;;;;;;;;;;;6239375;28;20269;-58
2023/08/17 03:07:10;;;;;;;;;;;;;;;;;;6239592;28;19925;-60
2023/08/17 03:10:11;;;;;;;;;;;;;;;;;;6240390;28;19980;-58
2023/08/17 03:13:11;;;;;;;;;;;;;;;;;;6240095;28;19931;-58
2023/08/17 03:16:12;;;;;;;;;;;;;;;;;;6242211;28;20221;-60
2023/08/17 03:19:12;;;;;;;;;;;;;;;;;;6223235;28;19927;-59
2023/08/17 03:22:13;;;;;;;;;;;;;;;;;;6240815;28;19925;-58
2023/08/17 03:25:13;;;;;;;;;;;;;;;;;;6241357;28;20214;-60
2023/08/17 03:28:14;;;;;;;;;;;;;;;;;;6239615;28;19921;-59
2023/08/17 03:31:14;;;;;;;;;;;;;;;;;;6242164;28;19976;-60
2023/08/17 03:34:15;;;;;;;;;;;;;;;;;;6242877;28;19933;-60
2023/08/17 03:37:15;;;;;;;;;;;;;;;;;;6241413;28;20396;-59
2023/08/17 03:40:16;;;;;;;;;;;;;;;;;;6243261;28;19986;-60
2023/08/17 03:43:16;;;;;;;;;;;;;;;;;;6239561;28;20410;-59
2023/08/17 03:46:17;;;;;;;;;;;;;;;;;;6241209;28;20378;-58
2023/08/17 03:49:17;;;;;;;;;;;;;;;;;;6240352;28;19921;-57
2023/08/17 03:52:18;;;;;;;;;;;;;;;;;;6240542;28;19928;-60
2023/08/17 03:55:18;;;;;;;;;;;;;;;;;;6241119;28;19924;-60
2023/08/17 03:58:19;;;;;;;;;;;;;;;;;;6240005;28;19925;-58
2023/08/17 04:01:20;;;;;;;;;;;;;;;;;;6240220;28;19921;-60
2023/08/17 04:04:20;;;;;;;;;;;;;;;;;;6241735;28;20940;-59
2023/08/17 04:07:22;;;;;;;;;;;;;;;;;;6240742;28;19947;-58
2023/08/17 04:10:22;;;;;;;;;;;;;;;;;;6242421;28;19929;-57
2023/08/17 04:13:23;;;;;;;;;;;;;;;;;;6241300;28;20312;-57
2023/08/17 04:16:24;;;;;;;;;;;;;;;;;;6236454;28;19936;-56
2023/08/17 04:19:24;;;;;;;;;;;;;;;;;;6238649;28;19925;-58
2023/08/17 04:22:25;;;;;;;;;;;;;;;;;;6235468;28;19939;-56
2023/08/17 04:25:25;;;;;;;;;;;;;;;;;;6244406;28;19925;-56
2023/08/17 04:28:25;;;;;;;;;;;;;;;;;;6240818;28;19927;-59
2023/08/17 04:31:26;;;;;;;;;;;;;;;;;;6239013;28;19928;-58
2023/08/17 04:34:27;;;;;;;;;;;;;;;;;;6240736;28;19975;-60
2023/08/17 04:37:27;;;;;;;;;;;;;;;;;;6239712;28;19925;-55
2023/08/17 04:40:28;;;;;;;;;;;;;;;;;;6240067;28;19921;-59
2023/08/17 04:43:28;;;;;;;;;;;;;;;;;;6243710;28;19980;-54
2023/08/17 04:46:29;;;;;;;;;;;;;;;;;;6239615;28;20351;-52
2023/08/17 04:49:29;;;;;;;;;;;;;;;;;;6243101;28;19932;-51
2023/08/17 04:52:30;;;;;;;;;;;;;;;;;;6239521;28;19929;-56
2023/08/17 04:55:31;;;;;;;;;;;;;;;;;;6240464;28;19925;-51
2023/08/17 04:58:32;;;;;;;;;;;;;;;;;;6238875;28;19929;-55
2023/08/17 05:01:32;;;;;;;;;;;;;;;;;;6239776;28;19925;-52
2023/08/17 05:04:34;;;;;;;;;;;;;;;;;;6242409;28;20256;-54
2023/08/17 05:07:34;;;;;;;;;;;;;;;;;;6244469;28;19925;-54
2023/08/17 05:10:35;;;;;;;;;;;;;;;;;;6242975;28;19936;-52
2023/08/17 05:13:35;;;;;;;;;;;;;;;;;;6243916;28;19951;-50
2023/08/17 05:16:36;;;;;;;;;;;;;;;;;;6266078;28;19937;-54
2023/08/17 05:19:38;;;;;;;;;;;;;;;;;;6268997;28;19921;-51
2023/08/17 05:22:38;;;;;;;;;;;;;;;;;;6268279;28;19924;-51
2023/08/17 05:25:39;;;;;;;;;;;;;;;;;;6268174;28;20015;-51
2023/08/17 05:28:39;;;;;;;;;;;;;;;;;;6269174;28;19931;-52
2023/08/17 05:31:39;;;;;;;;;;;;;;;;;;6271051;28;20489;-52
2023/08/17 05:34:40;;;;;;;;;;;;;;;;;;6267815;28;20346;-54
2023/08/17 05:37:41;;;;;;;;;;;;;;;;;;6265516;28;19920;-54
2023/08/17 05:40:42;;;;;;;;;;;;;;;;;;6269451;28;20276;-57
2023/08/17 05:43:42;;;;;;;;;;;;;;;;;;6269584;28;19925;-55
2023/08/17 05:46:43;;;;;;;;;;;;;;;;;;6269606;28;20011;-55
2023/08/17 05:49:43;;;;;;;;;;;;;;;;;;6268231;28;19921;-53
2023/08/17 05:52:44;;;;;;;;;;;;;;;;;;6270303;28;20071;-56
2023/08/17 05:55:44;;;;;;;;;;;;;;;;;;6266230;28;19924;-53
2023/08/17 05:58:45;;;;;;;;;;;;;;;;;;6268862;28;19924;-53
2023/08/17 06:01:45;;;;;;;;;;;;;;;;;;6268867;28;19931;-53
2023/08/17 06:04:47;;;;;;;;;;;;;;;;;;6269331;28;19921;-54
2023/08/17 06:07:47;;;;;;;;;;;;;;;;;;6265677;28;19942;-53
2023/08/17 06:10:48;;;;;;;;;;;;;;;;;;6267946;28;20371;-56
2023/08/17 06:13:48;;;;;;;;;;;;;;;;;;6267898;28;19920;-53
2023/08/17 06:16:49;;;;;;;;;;;;;;;;;;6266979;28;19920;-58
2023/08/17 06:19:49;;;;;;;;;;;;;;;;;;6269786;28;20386;-56
2023/08/17 06:22:50;;;;;;;;;;;;;;;;;;6267944;28;20026;-56
2023/08/17 06:25:50;;;;;;;;;;;;;;;;;;6266151;28;19924;-52
2023/08/17 06:28:51;;;;;;;;;;;;;;;;;;6268191;28;20306;-54
2023/08/17 06:31:51;;;;;;;;;;;;;;;;;;6269085;28;19925;-53
2023/08/17 06:34:54;;;;;;;;;;;;;;;;;;6267024;28;19983;-52
2023/08/17 06:37:57;;;;;;;;;;;;;;;;;;6267107;28;19925;-54
2023/08/17 06:40:58;;;;;;;;;;;;;;;;;;6286866;28;19921;-56
2023/08/17 06:43:58;;;;;;;;;;;;;;;;;;6270913;28;19932;-60
2023/08/17 06:46:59;;;;;;;;;;;;;;;;;;6266440;28;19925;-55
2023/08/17 06:49:59;;;;;;;;;;;;;;;;;;6267529;28;19920;-59
2023/08/17 06:53:00;;;;;;;;;;;;;;;;;;6269035;28;19920;-59
2023/08/17 06:56:01;;;;;;;;;;;;;;;;;;6262811;28;20288;-60
2023/08/17 06:59:02;;;;;;;;;;;;;;;;;;6265558;28;19936;-61
2023/08/17 07:02:03;;;;;;;;;;;;;;;;;;6269643;28;19972;-59
2023/08/17 07:05:04;;;;;;;;;;;;;;;;;;6262067;28;20016;-58
2023/08/17 07:08:05;;;;;;;;;;;;;;;;;;6261679;28;19928;-57
2023/08/17 07:11:06;;;;;;;;;;;;;;;;;;6265091;28;19940;-60
2023/08/17 07:14:06;;;;;;;;;;;;;;;;;;6263381;28;19928;-59
2023/08/17 07:17:07;;;;;;;;;;;;;;;;;;6259559;28;19954;-59
2023/08/17 07:20:07;;;;;;;;;;;;;;;;;;6264686;28;19966;-55
2023/08/17 07:23:08;;;;;;;;;;;;;;;;;;6265087;28;20337;-60
2023/08/17 07:26:08;;;;;;;;;;;;;;;;;;6259011;28;19929;-54
2023/08/17 07:29:09;;;;;;;;;;;;;;;;;;6259526;28;19978;-56
2023/08/17 07:32:09;;;;;;;;;;;;;;;;;;6262416;28;20433;-57
2023/08/17 07:35:10;;;;;;;;;;;;;;;;;;6258709;28;20387;-56
2023/08/17 07:38:10;;;;;;;;;;;;;;;;;;6267328;28;19932;-59
2023/08/17 07:41:11;;;;;;;;;;;;;;;;;;6260722;28;20405;-56
2023/08/17 07:44:11;;;;;;;;;;;;;;;;;;6264207;28;19971;-55
2023/08/17 07:47:12;;;;;;;;;;;;;;;;;;6259260;28;20584;-54
2023/08/17 07:50:13;;;;;;;;;;;;;;;;;;6262804;28;20330;-60
2023/08/17 07:53:13;;;;;;;;;;;;;;;;;;6261346;28;20397;-54
2023/08/17 07:56:14;;;;;;;;;;;;;;;;;;6262824;28;19925;-60
2023/08/17 07:59:14;;;;;;;;;;;;;;;;;;6264874;28;19925;-54
2023/08/17 08:02:14;;;;;;;;;;;;;;;;;;6261321;28;19925;-57
2023/08/17 08:05:15;;;;;;;;;;;;;;;;;;6259888;28;19933;-60
2023/08/17 08:08:17;;;;;;;;;;;;;;;;;;6263388;28;19931;-59
2023/08/17 08:11:18;;;;;;;;;;;;;;;;;;6257519;28;19947;-52
2023/08/17 08:14:18;;;;;;;;;;;;;;;;;;6256813;28;19925;-60
2023/08/17 08:17:19;;;;;;;;;;;;;;;;;;6236347;28;20012;-56
2023/08/17 08:20:20;;;;;;;;;;;;;;;;;;6238667;28;19925;-59
2023/08/17 08:23:20;;;;;;;;;;;;;;;;;;6239510;28;19921;-61
2023/08/17 08:26:21;;;;;;;;;;;;;;;;;;6228494;28;19932;-53
2023/08/17 08:29:21;;;;;;;;;;;;;;;;;;6236503;28;19925;-59
2023/08/17 08:32:22;;;;;;;;;;;;;;;;;;6238349;28;19998;-55
2023/08/17 08:35:24;;;;;;;;;;;;;;;;;;6237177;28;20048;-56
2023/08/17 08:38:24;;;;;;;;;;;;;;;;;;6241544;28;19921;-55
2023/08/17 08:41:26;;;;;;;;;;;;;;;;;;6236684;28;19921;-58
2023/08/17 08:44:27;;;;;;;;;;;;;;;;;;6239941;28;20370;-53
2023/08/17 08:47:28;;;;;;;;;;;;;;;;;;6238232;28;19925;-53
2023/08/17 08:50:31;;;;;;;;;;;;;;;;;;6236663;28;20288;-59
2023/08/17 08:53:35;;;;;;;;;;;;;;;;;;6239001;28;20072;-58
2023/08/17 08:56:37;;;;;;;;;;;;;;;;;;6234842;28;20404;-57
2023/08/17 08:59:43;;;;;;;;;;;;;;;;;;6239591;28;19927;-55
2023/08/17 09:02:44;;;;;;;;;;;;;;;;;;6238529;28;19924;-50
2023/08/17 09:05:48;;;;;;;;;;;;;;;;;;6237189;28;19932;-59
2023/08/17 09:08:49;;;;;;;;;;;;;;;;;;6238824;28;20011;-55
2023/08/17 09:11:49;;;;;;;;;;;;;;;;;;6241952;28;19925;-55
2023/08/17 09:14:50;;;;;;;;;;;;;;;;;;6246325;28;19928;-59
2023/08/17 09:17:50;;;;;;;;;;;;;;;;;;6268820;28;19936;-56
2023/08/17 09:20:51;;;;;;;;;;;;;;;;;;6266037;28;19928;-59
2023/08/17 09:23:53;;;;;;;;;;;;;;;;;;6267781;28;19935;-59
2023/08/17 09:26:54;;;;;;;;;;;;;;;;;;6282028;28;20426;-57
2023/08/17 09:30:06;;;;;;;;;;;;;;;;;;6270474;28;19925;-55
2023/08/17 09:33:06;;;;;;;;;;;;;;;;;;6268774;28;19920;-55
2023/08/17 09:36:09;;;;;;;;;;;;;;;;;;6265607;28;19927;-55
2023/08/17 09:39:09;;;;;;;;;;;;;;;;;;6268480;28;19931;-56
2023/08/17 09:42:10;;;;;;;;;;;;;;;;;;6266034;28;19924;-53
2023/08/17 09:45:11;;;;;;;;;;;;;;;;;;6266109;28;20391;-51
2023/08/17 09:48:14;;;;;;;;;;;;;;;;;;6266983;28;20015;-56
2023/08/17 09:51:15;;;;;;;;;;;;;;;;;;6266344;28;20019;-60
2023/08/17 09:54:23;;;;;;;;;;;;;;;;;;6268351;28;20019;-54
2023/08/17 09:57:24;;;;;;;;;;;;;;;;;;6257583;28;19924;-53
2023/08/17 10:00:25;;;;;;;;;;;;;;;;;;6263810;28;19977;-54
2023/08/17 10:03:27;;;;;;;;;;;;;;;;;;6263030;28;20546;-59
2023/08/17 10:06:30;;;;;;;;;;;;;;;;;;6260715;28;19986;-55
2023/08/17 10:09:36;;;;;;;;;;;;;;;;;;6265796;28;20435;-51
2023/08/17 10:12:42;;;;;;;;;;;;;;;;;;6263043;28;20541;-56
2023/08/17 10:15:55;;;;;;;;;;;;;;;;;;6266764;28;20011;-56
2023/08/17 10:19:04;;;;;;;;;;;;;;;;;;6264604;28;20373;-53
2023/08/17 10:22:18;;;;;;;;;;;;;;;;;;6263330;28;19927;-59
2023/08/17 10:25:20;;;;;;;;;;;;;;;;;;6264276;28;19924;-55
2023/08/17 10:28:21;;;;;;;;;;;;;;;;;;6268632;28;20027;-56
2023/08/17 10:31:22;;;;;;;;;;;;;;;;;;6258676;28;20076;-58
2023/08/17 10:34:23;;;;;;;;;;;;;;;;;;6260584;28;19920;-57
2023/08/17 10:37:24;;;;;;;;;;;;;;;;;;6264666;28;19928;-57
2023/08/17 10:40:25;;;;;;;;;;;;;;;;;;6259612;28;20261;-56
2023/08/17 10:43:32;;;;;;;;;;;;;;;;;;6266332;28;19927;-52
2023/08/17 10:46:33;;;;;;;;;;;;;;;;;;6265296;28;19998;-62
2023/08/17 10:49:35;;;;;;;;;;;;;;;;;;6262322;28;19925;-55
2023/08/17 10:52:37;;;;;;;;;;;;;;;;;;6264990;28;19928;-59
2023/08/17 10:55:41;;;;;;;;;;;;;;;;;;6269467;28;19927;-58
2023/08/17 10:58:42;;;;;;;;;;;;;;;;;;6277837;28;20390;-57
2023/08/17 11:01:43;;;;;;;;;;;;;;;;;;6269906;28;20455;-59
2023/08/17 11:04:50;;;;;;;;;;;;;;;;;;6269103;28;19927;-55
2023/08/17 11:07:51;;;;;;;;;;;;;;;;;;6261628;28;20319;-58
2023/08/17 11:11:04;;;;;;;;;;;;;;;;;;6259319;28;19979;-56
2023/08/17 11:14:05;;;;;;;;;;;;;;;;;;6258528;28;19924;-55
2023/08/17 11:17:05;;;;;;;;;;;;;;;;;;6262664;28;19946;-59
2023/08/17 11:20:09;;;;;;;;;;;;;;;;;;6263230;28;19931;-60
2023/08/17 11:23:10;;;;;;;;;;;;;;;;;;6261947;28;19967;-60
2023/08/17 11:26:10;;;;;;;;;;;;;;;;;;6254144;28;20308;-61
2023/08/17 11:29:11;;;;;;;;;;;;;;;;;;6255279;28;19936;-60
2023/08/17 11:32:12;;;;;;;;;;;;;;;;;;6256293;28;19924;-58
2023/08/17 11:35:12;;;;;;;;;;;;;;;;;;6257996;28;20109;-60
2023/08/17 11:38:13;;;;;;;;;;;;;;;;;;6258883;28;19932;-54
2023/08/17 11:41:15;;;;;;;;;;;;;;;;;;6257482;28;19929;-56
2023/08/17 11:44:17;;;;;;;;;;;;;;;;;;6255823;28;20861;-59
2023/08/17 11:47:18;;;;;;;;;;;;;;;;;;6254503;28;20040;-57
2023/08/17 11:50:19;;;;;;;;;;;;;;;;;;6257156;28;19932;-60
2023/08/17 11:53:19;;;;;;;;;;;;;;;;;;6257248;28;19939;-57
2023/08/17 11:56:20;;;;;;;;;;;;;;;;;;6254590;28;19964;-59
2023/08/17 11:59:20;;;;;;;;;;;;;;;;;;6257416;28;19954;-53
2023/08/17 12:02:23;;;;;;;;;;;;;;;;;;6253835;28;19920;-59
2023/08/17 12:05:24;;;;;;;;;;;;;;;;;;6254476;28;19928;-57
2023/08/17 12:08:25;;;;;;;;;;;;;;;;;;6251477;28;19935;-59
2023/08/17 12:11:26;;;;;;;;;;;;;;;;;;6256744;28;20068;-54
2023/08/17 12:14:27;;;;;;;;;;;;;;;;;;6254778;28;20185;-58
2023/08/17 12:17:28;;;;;;;;;;;;;;;;;;6254154;28;19929;-59
2023/08/17 12:20:29;;;;;;;;;;;;;;;;;;6255571;28;20549;-56
2023/08/17 12:23:32;;;;;;;;;;;;;;;;;;6253113;28;20073;-52
2023/08/17 12:26:34;;;;;;;;;;;;;;;;;;6244117;28;19929;-59
2023/08/17 12:29:45;;;;;;;;;;;;;;;;;;6256190;28;20009;-55
2023/08/17 12:32:46;;;;;;;;;;;;;;;;;;6255186;28;20053;-55
2023/08/17 12:35:46;;;;;;;;;;;;;;;;;;6256117;28;19924;-58
2023/08/17 12:38:47;;;;;;;;;;;;;;;;;;6253554;28;19928;-56
2023/08/17 12:41:48;;;;;;;;;;;;;;;;;;6254409;28;19928;-55
2023/08/17 12:44:48;;;;;;;;;;;;;;;;;;6258457;28;19928;-60
2023/08/17 12:47:49;;;;;;;;;;;;;;;;;;6259705;28;19925;-55
2023/08/17 12:50:50;;;;;;;;;;;;;;;;;;6261632;28;19935;-59
2023/08/17 12:53:50;;;;;;;;;;;;;;;;;;6258331;28;19929;-58
2023/08/17 12:56:51;;;;;;;;;;;;;;;;;;6264288;28;19935;-60
2023/08/17 12:59:51;;;;;;;;;;;;;;;;;;6263056;28;19924;-59
2023/08/17 13:02:52;;;;;;;;;;;;;;;;;;6259291;28;19929;-59
2023/08/17 13:05:52;;;;;;;;;;;;;;;;;;6261989;28;20035;-54
2023/08/17 13:08:53;;;;;;;;;;;;;;;;;;6258362;28;19932;-54
2023/08/17 13:11:53;;;;;;;;;;;;;;;;;;6259834;28;19929;-57
2023/08/17 13:14:54;;;;;;;;;;;;;;;;;;6267212;28;20690;-56
2023/08/17 13:17:54;;;;;;;;;;;;;;;;;;6264780;28;19920;-63
2023/08/17 13:20:55;;;;;;;;;;;;;;;;;;6267904;28;19969;-60
2023/08/17 13:23:55;;;;;;;;;;;;;;;;;;6270674;28;20204;-59
2023/08/17 13:26:57;;;;;;;;;;;;;;;;;;6259929;28;21021;-58
2023/08/17 13:30:01;;;;;;;;;;;;;;;;;;6267635;28;20174;-59
2023/08/17 13:33:01;;;;;;;;;;;;;;;;;;6259450;28;20604;-59
2023/08/17 13:36:02;;;;;;;;;;;;;;;;;;6265068;28;19932;-59
2023/08/17 13:39:03;;;;;;;;;;;;;;;;;;6264427;28;20308;-60
2023/08/17 13:42:03;;;;;;;;;;;;;;;;;;6262011;28;19925;-56
2023/08/17 13:45:04;;;;;;;;;;;;;;;;;;6266298;28;20447;-59
2023/08/17 13:48:08;;;;;;;;;;;;;;;;;;6258775;28;20448;-59
2023/08/17 13:51:09;;;;;;;;;;;;;;;;;;6265686;28;20307;-59
2023/08/17 13:54:09;;;;;;;;;;;;;;;;;;6262715;28;19931;-58
2023/08/17 13:57:10;;;;;;;;;;;;;;;;;;6265051;28;19928;-58
2023/08/17 14:00:11;;;;;;;;;;;;;;;;;;6263969;28;19928;-59
2023/08/17 14:03:12;;;;;;;;;;;;;;;;;;6267638;28;20105;-54
2023/08/17 14:06:13;;;;;;;;;;;;;;;;;;6264908;28;19924;-58
2023/08/17 14:09:13;;;;;;;;;;;;;;;;;;6271159;28;19929;-59
2023/08/17 14:12:14;;;;;;;;;;;;;;;;;;6272018;28;19936;-58
2023/08/17 14:15:14;;;;;;;;;;;;;;;;;;6268439;28;19935;-59
2023/08/17 14:18:15;;;;;;;;;;;;;;;;;;6265989;28;19929;-59
2023/08/17 14:21:15;;;;;;;;;;;;;;;;;;6267502;28;19926;-54
2023/08/17 14:24:16;;;;;;;;;;;;;;;;;;6266890;28;20382;-58
2023/08/17 14:27:16;;;;;;;;;;;;;;;;;;6267670;28;20516;-57
2023/08/17 14:30:17;;;;;;;;;;;;;;;;;;6267568;28;19948;-60
2023/08/17 14:33:17;;;;;;;;;;;;;;;;;;6260599;28;19932;-59
2023/08/17 14:36:18;;;;;;;;;;;;;;;;;;6264609;28;19928;-60
2023/08/17 14:39:18;;;;;;;;;;;;;;;;;;6265551;28;19932;-55
2023/08/17 14:42:19;;;;;;;;;;;;;;;;;;6263316;28;19935;-57
2023/08/17 14:45:19;;;;;;;;;;;;;;;;;;6267460;28;19934;-56
2023/08/17 14:48:20;;;;;;;;;;;;;;;;;;6267216;28;19931;-55
2023/08/17 14:51:20;;;;;;;;;;;;;;;;;;6266916;28;19924;-56
2023/08/17 14:54:21;;;;;;;;;;;;;;;;;;6269199;28;19935;-55
2023/08/17 14:57:21;;;;;;;;;;;;;;;;;;6266244;28;20380;-56
2023/08/17 15:00:22;;;;;;;;;;;;;;;;;;6270935;28;20311;-54
2023/08/17 15:03:23;;;;;;;;;;;;;;;;;;6263578;28;19929;-60
2023/08/17 15:06:24;;;;;;;;;;;;;;;;;;6265898;28;21153;-58
2023/08/17 15:09:25;;;;;;;;;;;;;;;;;;6271319;28;20363;-56
2023/08/17 15:12:25;;;;;;;;;;;;;;;;;;6266513;28;19927;-56
2023/08/17 15:15:26;;;;;;;;;;;;;;;;;;6273623;28;20315;-56
2023/08/17 15:18:26;;;;;;;;;;;;;;;;;;6269487;28;20373;-53
2023/08/17 15:21:27;;;;;;;;;;;;;;;;;;6264419;28;20011;-57
2023/08/17 15:24:27;;;;;;;;;;;;;;;;;;6265508;28;20721;-66
2023/08/17 15:27:28;;;;;;;;;;;;;;;;;;6266136;28;19940;-60
2023/08/17 15:30:29;;;;;;;;;;;;;;;;;;6269974;28;20433;-55
2023/08/17 15:33:29;;;;;;;;;;;;;;;;;;6268001;28;19928;-54
2023/08/17 15:36:30;;;;;;;;;;;;;;;;;;6262495;28;19928;-52
2023/08/17 15:39:30;;;;;;;;;;;;;;;;;;6257516;28;19928;-54
2023/08/17 15:42:31;;;;;;;;;;;;;;;;;;6252530;28;20299;-54
2023/08/17 15:45:32;;;;;;;;;;;;;;;;;;6254707;28;20098;-55
2023/08/17 15:48:32;;;;;;;;;;;;;;;;;;6254969;28;20307;-53
2023/08/17 15:51:33;;;;;;;;;;;;;;;;;;6257709;28;19951;-54
2023/08/17 15:54:33;;;;;;;;;;;;;;;;;;6255239;28;20174;-53
2023/08/17 15:57:34;;;;;;;;;;;;;;;;;;6252482;28;19928;-56
2023/08/17 16:00:35;;;;;;;;;;;;;;;;;;6255628;28;19939;-55
2023/08/17 16:03:36;;;;;;;;;;;;;;;;;;6250160;28;20010;-56
2023/08/17 16:06:37;;;;;;;;;;;;;;;;;;6250978;28;20426;-54
2023/08/17 16:09:38;;;;;;;;;;;;;;;;;;6256416;28;19932;-54
2023/08/17 16:12:38;;;;;;;;;;;;;;;;;;6253015;28;20350;-55
2023/08/17 16:15:39;;;;;;;;;;;;;;;;;;6256846;28;19947;-55
2023/08/17 16:18:39;;;;;;;;;;;;;;;;;;6252377;28;20415;-55
2023/08/17 16:21:40;;;;;;;;;;;;;;;;;;6254493;28;19936;-53
2023/08/17 16:24:40;;;;;;;;;;;;;;;;;;6253743;28;19925;-55
2023/08/17 16:27:41;;;;;;;;;;;;;;;;;;6252651;28;19931;-52
2023/08/17 16:30:41;;;;;;;;;;;;;;;;;;6254498;28;19931;-54
2023/08/17 16:33:42;;;;;;;;;;;;;;;;;;6256627;28;19929;-52
2023/08/17 16:36:43;;;;;;;;;;;;;;;;;;6253587;28;19951;-53
2023/08/17 16:39:44;;;;;;;;;;;;;;;;;;6253749;28;19940;-58
2023/08/17 16:42:46;;;;;;;;;;;;;;;;;;6259900;28;20693;-55
2023/08/17 16:45:47;;;;;;;;;;;;;;;;;;6256964;28;19936;-54
2023/08/17 16:48:47;;;;;;;;;;;;;;;;;;6254338;28;20398;-54
2023/08/17 16:51:48;;;;;;;;;;;;;;;;;;6257181;28;20371;-52
2023/08/17 16:54:48;;;;;;;;;;;;;;;;;;6264464;28;19935;-55
2023/08/17 16:57:49;;;;;;;;;;;;;;;;;;6265598;28;20018;-55
2023/08/17 17:00:49;;;;;;;;;;;;;;;;;;6263920;28;19963;-55
2023/08/17 17:03:50;;;;;;;;;;;;;;;;;;6265225;28;19932;-58
2023/08/17 17:06:50;;;;;;;;;;;;;;;;;;6264236;28;20002;-55
2023/08/17 17:09:51;;;;;;;;;;;;;;;;;;6266149;28;19921;-55
2023/08/17 17:12:51;;;;;;;;;;;;;;;;;;6261933;28;19925;-57
2023/08/17 17:15:52;;;;;;;;;;;;;;;;;;6272637;28;19930;-54
2023/08/17 17:18:52;;;;;;;;;;;;;;;;;;6265340;28;19928;-58
2023/08/17 17:21:53;;;;;;;;;;;;;;;;;;6261193;28;19929;-60
2023/08/17 17:24:54;;;;;;;;;;;;;;;;;;6252790;28;19924;-54
2023/08/17 17:27:55;;;;;;;;;;;;;;;;;;6247579;28;20032;-61
2023/08/17 17:30:55;;;;;;;;;;;;;;;;;;6247920;28;20291;-52
2023/08/17 17:33:56;;;;;;;;;;;;;;;;;;6243821;28;20422;-55
2023/08/17 17:36:56;;;;;;;;;;;;;;;;;;6243984;28;19945;-57
2023/08/17 17:39:57;;;;;;;;;;;;;;;;;;6245255;28;19929;-59
2023/08/17 17:42:57;;;;;;;;;;;;;;;;;;6249344;28;19929;-57
2023/08/17 17:45:58;;;;;;;;;;;;;;;;;;6250766;28;19933;-60
2023/08/17 17:48:59;;;;;;;;;;;;;;;;;;6251384;28;19936;-59
2023/08/17 17:52:00;;;;;;;;;;;;;;;;;;6244731;28;20019;-58
2023/08/17 17:55:02;;;;;;;;;;;;;;;;;;6251275;28;20509;-56
2023/08/17 17:58:03;;;;;;;;;;;;;;;;;;6253575;28;19929;-58
2023/08/17 18:01:04;;;;;;;;;;;;;;;;;;6254117;28;19940;-54
2023/08/17 18:04:05;;;;;;;;;;;;;;;;;;6270337;28;19927;-59
2023/08/17 18:07:05;;;;;;;;;;;;;;;;;;6276301;28;20356;-55
2023/08/17 18:10:06;;;;;;;;;;;;;;;;;;6269209;28;19927;-53
2023/08/17 18:13:06;;;;;;;;;;;;;;;;;;6267598;28;19920;-53
2023/08/17 18:16:07;;;;;;;;;;;;;;;;;;6265721;28;20066;-52
2023/08/17 18:19:07;;;;;;;;;;;;;;;;;;6268599;28;20379;-53
2023/08/17 18:22:08;;;;;;;;;;;;;;;;;;6266550;28;20275;-55
2023/08/17 18:25:08;;;;;;;;;;;;;;;;;;6267033;28;20292;-55
2023/08/17 18:28:10;;;;;;;;;;;;;;;;;;6267126;28;20003;-55
2023/08/17 18:31:11;;;;;;;;;;;;;;;;;;6273334;28;19924;-55
2023/08/17 18:34:11;;;;;;;;;;;;;;;;;;6275275;28;19924;-52
2023/08/17 18:37:12;;;;;;;;;;;;;;;;;;6266155;28;20306;-52
2023/08/17 18:40:12;;;;;;;;;;;;;;;;;;6266889;28;19929;-54
2023/08/17 18:43:13;;;;;;;;;;;;;;;;;;6265413;28;20283;-53
2023/08/17 18:46:13;;;;;;;;;;;;;;;;;;6268141;28;19920;-55
2023/08/17 18:49:14;;;;;;;;;;;;;;;;;;6268350;28;19932;-56
2023/08/17 18:52:14;;;;;;;;;;;;;;;;;;6265869;28;19921;-60
2023/08/17 18:55:15;;;;;;;;;;;;;;;;;;6268430;28;20361;-53
2023/08/17 18:58:17;;;;;;;;;;;;;;;;;;6260813;28;19925;-55
2023/08/17 19:01:17;;;;;;;;;;;;;;;;;;6265385;28;19960;-54
2023/08/17 19:04:18;;;;;;;;;;;;;;;;;;6265612;28;19920;-56
2023/08/17 19:07:19;;;;;;;;;;;;;;;;;;6265578;28;19970;-58
2023/08/17 19:10:19;;;;;;;;;;;;;;;;;;6267256;28;20451;-60
2023/08/17 19:13:20;;;;;;;;;;;;;;;;;;6265632;28;19925;-56
2023/08/17 19:16:20;;;;;;;;;;;;;;;;;;6266399;28;20143;-57
2023/08/17 19:19:21;;;;;;;;;;;;;;;;;;6266430;28;19990;-55
2023/08/17 19:22:21;;;;;;;;;;;;;;;;;;6260601;28;19920;-56
2023/08/17 19:25:22;;;;;;;;;;;;;;;;;;6264129;28;19921;-55
2023/08/17 19:28:23;;;;;;;;;;;;;;;;;;6259765;28;19928;-56
2023/08/17 19:31:23;;;;;;;;;;;;;;;;;;6262085;28;20077;-54
2023/08/17 19:34:24;;;;;;;;;;;;;;;;;;6265046;28;19936;-57
2023/08/17 19:37:25;;;;;;;;;;;;;;;;;;6259717;28;20418;-57
2023/08/17 19:40:25;;;;;;;;;;;;;;;;;;6261580;28;19931;-57
2023/08/17 19:43:26;;;;;;;;;;;;;;;;;;6256933;28;19925;-55
2023/08/17 19:46:26;;;;;;;;;;;;;;;;;;6253512;28;19920;-57
2023/08/17 19:49:27;;;;;;;;;;;;;;;;;;6264959;28;19920;-55
2023/08/17 19:52:27;;;;;;;;;;;;;;;;;;6263992;28;19921;-56
2023/08/17 19:55:28;;;;;;;;;;;;;;;;;;6264752;28;19966;-54
2023/08/17 19:58:28;;;;;;;;;;;;;;;;;;6266071;28;20027;-58
2023/08/17 20:01:29;;;;;;;;;;;;;;;;;;6263868;28;19924;-56
2023/08/17 20:04:30;;;;;;;;;;;;;;;;;;6266142;28;19927;-54
2023/08/17 20:07:32;;;;;;;;;;;;;;;;;;6264398;28;19921;-54
2023/08/17 20:10:32;;;;;;;;;;;;;;;;;;6265400;28;19927;-58
2023/08/17 20:13:33;;;;;;;;;;;;;;;;;;6264539;28;20292;-59
2023/08/17 20:16:33;;;;;;;;;;;;;;;;;;6267034;28;19928;-53
2023/08/17 20:19:34;;;;;;;;;;;;;;;;;;6268520;28;19921;-55
2023/08/17 20:22:34;;;;;;;;;;;;;;;;;;6258442;28;19959;-54
2023/08/17 20:25:36;;;;;;;;;;;;;;;;;;6259596;28;19947;-51
2023/08/17 20:28:38;;;;;;;;;;;;;;;;;;6264307;28;19924;-52
2023/08/17 20:31:38;;;;;;;;;;;;;;;;;;6238037;28;20299;-57
2023/08/17 20:37:49;;;;;;;;;;;;;;;;;;6345645;23;19931;-58
2023/08/17 20:40:50;;;;;;;;;;;;;;;;;;6300541;28;20370;-52